createdAt,value
2022-09-14T00:01:28.494Z,14.93
2022-09-14T00:03:56.674Z,17.27
2022-09-14T00:06:24.218Z,12.43
2022-09-14T00:08:52.709Z,15.40
2022-09-14T00:11:20.732Z,15.60
2022-09-14T00:13:48.427Z,15.07
2022-09-14T00:16:17.678Z,13.30
2022-09-14T00:18:45.213Z,13.90
2022-09-14T00:21:13.165Z,16.20
2022-09-14T00:23:42.108Z,15.40
2022-09-14T00:26:11.121Z,14.53
2022-09-14T00:28:38.869Z,13.83
2022-09-14T00:31:06.484Z,14.27
2022-09-14T00:33:34.220Z,15.00
2022-09-14T00:36:27.822Z,19.10
2022-09-14T00:38:56.520Z,13.33
2022-09-14T00:41:25.117Z,14.03
2022-09-14T00:44:04.171Z,14.00
2022-09-14T00:46:32.484Z,15.33
2022-09-14T00:49:00.539Z,11.70
2022-09-14T00:51:29.212Z,16.10
2022-09-14T00:53:56.390Z,15.23
2022-09-14T00:56:23.597Z,14.17
2022-09-14T00:58:52.083Z,13.73
2022-09-14T01:01:19.284Z,19.80
2022-09-14T01:03:46.500Z,17.00
2022-09-14T01:06:13.680Z,17.43
2022-09-14T01:08:53.265Z,14.10
2022-09-14T01:11:20.289Z,19.00
2022-09-14T01:14:06.108Z,19.97
2022-09-14T01:16:48.545Z,23.07
2022-09-14T01:19:29.657Z,19.30
2022-09-14T01:21:59.106Z,23.90
2022-09-14T01:24:38.356Z,23.60
2022-09-14T01:27:13.805Z,24.63
2022-09-14T01:29:59.608Z,22.43
2022-09-14T01:32:29.308Z,21.67
2022-09-14T01:35:15.918Z,21.77
2022-09-14T01:37:54.657Z,23.73
2022-09-14T01:40:31.549Z,24.60
2022-09-14T01:43:00.853Z,24.27
2022-09-14T01:45:29.505Z,23.03
2022-09-14T01:48:04.476Z,27.70
2022-09-14T01:50:54.912Z,25.13
2022-09-14T01:53:28.211Z,27.67
2022-09-14T01:56:04.483Z,27.63
2022-09-14T01:58:35.710Z,26.50
2022-09-14T02:01:04.618Z,29.27
2022-09-14T02:03:38.720Z,29.70
2022-09-14T02:06:05.941Z,33.13
2022-09-14T02:08:33.424Z,32.10
2022-09-14T02:11:00.975Z,33.47
2022-09-14T02:13:28.366Z,34.63
2022-09-14T02:15:55.550Z,35.63
2022-09-14T02:18:22.709Z,36.03
2022-09-14T02:20:54.476Z,35.47
2022-09-14T02:23:21.957Z,35.07
2022-09-14T02:25:49.140Z,32.90
2022-09-14T02:28:16.469Z,37.73
2022-09-14T02:30:55.548Z,38.30
2022-09-14T02:33:40.044Z,39.90
2022-09-14T02:36:18.542Z,40.27
2022-09-14T02:38:50.202Z,39.30
2022-09-14T02:41:23.152Z,43.70
2022-09-14T02:43:55.742Z,43.87
2022-09-14T02:46:34.931Z,41.17
2022-09-14T02:49:12.619Z,50.43
2022-09-14T02:51:47.839Z,50.30
2022-09-14T02:54:29.091Z,50.37
2022-09-14T02:56:56.185Z,54.47
2022-09-14T02:59:23.270Z,61.17
2022-09-14T03:01:50.420Z,60.90
2022-09-14T03:04:17.563Z,73.83
2022-09-14T03:06:44.815Z,70.97
2022-09-14T03:09:11.947Z,56.50
2022-09-14T03:11:39.083Z,61.50
2022-09-14T03:14:06.157Z,66.50
2022-09-14T03:16:33.313Z,60.93
2022-09-14T03:19:00.458Z,57.30
2022-09-14T03:21:27.515Z,59.17
2022-09-14T03:23:56.961Z,66.90
2022-09-14T03:26:24.558Z,60.17
2022-09-14T03:28:55.855Z,67.73
2022-09-14T03:31:23.582Z,86.57
2022-09-14T03:33:55.133Z,80.93
2022-09-14T03:36:22.289Z,60.73
2022-09-14T03:38:50.627Z,55.17
2022-09-14T03:41:18.387Z,61.77
2022-09-14T03:43:46.151Z,60.23
2022-09-14T03:46:14.517Z,56.00
2022-09-14T03:48:42.095Z,79.20
2022-09-14T03:51:10.067Z,67.30
2022-09-14T03:53:37.606Z,64.13
2022-09-14T03:56:11.462Z,64.97
2022-09-14T03:58:38.707Z,60.23
2022-09-14T04:01:09.860Z,68.17
2022-09-14T04:03:37.346Z,65.47
2022-09-14T04:06:08.432Z,72.17
2022-09-14T04:08:36.593Z,69.90
2022-09-14T04:11:08.119Z,74.07
2022-09-14T04:13:35.483Z,69.97
2022-09-14T04:16:02.870Z,80.33
2022-09-14T04:18:30.007Z,72.87
2022-09-14T04:20:58.076Z,78.33
2022-09-14T04:23:25.737Z,77.43
2022-09-14T04:25:53.539Z,92.47
2022-09-14T04:28:21.042Z,96.40
2022-09-14T04:31:01.676Z,102.70
2022-09-14T04:33:33.285Z,102.57
2022-09-14T04:36:19.981Z,104.97
2022-09-14T04:38:47.458Z,107.10
2022-09-14T04:41:15.816Z,103.43
2022-09-14T04:43:44.029Z,78.10
2022-09-14T04:46:12.546Z,83.27
2022-09-14T04:48:39.932Z,74.70
2022-09-14T04:51:08.562Z,85.57
2022-09-14T04:53:36.253Z,87.83
2022-09-14T04:56:04.114Z,89.10
2022-09-14T04:58:31.375Z,87.40
2022-09-14T05:01:08.964Z,85.70
2022-09-14T05:03:38.862Z,103.83
2022-09-14T05:06:06.975Z,84.80
2022-09-14T05:08:35.940Z,76.67
2022-09-14T05:11:03.461Z,77.77
2022-09-14T05:13:30.572Z,77.00
2022-09-14T05:16:05.513Z,86.73
2022-09-14T05:18:32.946Z,97.20
2022-09-14T05:21:08.491Z,97.90
2022-09-14T05:23:36.127Z,103.63
2022-09-14T05:26:03.328Z,95.70
2022-09-14T05:28:31.048Z,92.87
2022-09-14T05:30:58.285Z,53.87
2022-09-14T05:33:25.626Z,73.33
2022-09-14T05:35:52.851Z,88.33
2022-09-14T05:38:19.930Z,94.63
2022-09-14T05:40:47.158Z,98.03
2022-09-14T05:43:14.251Z,96.97
2022-09-14T05:45:41.306Z,87.90
2022-09-14T05:48:08.499Z,88.37
2022-09-14T05:50:35.654Z,91.17
2022-09-14T05:53:02.774Z,81.97
2022-09-14T05:55:29.888Z,91.47
2022-09-14T05:57:56.993Z,95.20
2022-09-14T06:00:24.331Z,80.33
2022-09-14T06:02:52.577Z,80.67
2022-09-14T06:05:20.045Z,94.87
2022-09-14T06:07:51.073Z,88.43
2022-09-14T06:10:18.310Z,84.93
2022-09-14T06:12:45.448Z,90.27
2022-09-14T06:15:12.617Z,75.03
2022-09-14T06:17:39.877Z,81.17
2022-09-14T06:20:07.939Z,71.07
2022-09-14T06:22:35.056Z,62.80
2022-09-14T06:25:02.238Z,71.37
2022-09-14T06:27:29.344Z,71.43
2022-09-14T06:29:56.656Z,59.23
2022-09-14T06:32:23.812Z,64.33
2022-09-14T06:34:50.903Z,57.77
2022-09-14T06:37:18.024Z,70.30
2022-09-14T06:39:45.854Z,70.03
2022-09-14T06:42:13.014Z,70.60
2022-09-14T06:44:40.267Z,73.90
2022-09-14T06:47:07.808Z,70.17
2022-09-14T06:49:34.928Z,66.80
2022-09-14T06:52:02.094Z,62.93
2022-09-14T06:54:29.262Z,81.33
2022-09-14T06:56:56.399Z,65.80
2022-09-14T06:59:23.592Z,65.77
2022-09-14T07:01:50.783Z,73.50
2022-09-14T07:04:18.256Z,71.43
2022-09-14T07:06:49.597Z,62.47
2022-09-14T07:09:17.360Z,70.50
2022-09-14T07:11:45.512Z,65.80
2022-09-14T07:14:13.135Z,60.37
2022-09-14T07:16:40.784Z,52.87
2022-09-14T07:19:10.170Z,56.37
2022-09-14T07:21:37.258Z,56.27
2022-09-14T07:24:05.948Z,51.13
2022-09-14T07:26:35.355Z,50.77
2022-09-14T07:29:04.508Z,44.43
2022-09-14T07:31:33.302Z,48.03
2022-09-14T07:34:02.647Z,47.63
2022-09-14T07:36:34.547Z,42.30
2022-09-14T07:39:02.839Z,53.10
2022-09-14T07:41:30.767Z,38.83
2022-09-14T07:44:00.453Z,36.97
2022-09-14T07:46:28.771Z,34.73
2022-09-14T07:48:57.131Z,39.23
2022-09-14T07:51:24.304Z,31.20
2022-09-14T07:53:51.437Z,34.73
2022-09-14T07:56:18.707Z,41.40
2022-09-14T07:58:45.864Z,37.47
2022-09-14T08:01:14.808Z,30.30
2022-09-14T08:03:43.516Z,28.97
2022-09-14T08:06:14.641Z,28.27
2022-09-14T08:08:43.036Z,26.60
2022-09-14T08:11:11.797Z,23.30
2022-09-14T08:13:40.191Z,24.30
2022-09-14T08:16:07.392Z,27.73
2022-09-14T08:18:35.262Z,25.67
2022-09-14T08:21:06.909Z,25.93
2022-09-14T08:23:34.636Z,26.07
2022-09-14T08:26:06.033Z,27.83
2022-09-14T08:28:33.878Z,24.67
2022-09-14T08:31:05.024Z,24.70
2022-09-14T08:33:33.450Z,21.80
2022-09-14T08:36:00.868Z,22.07
2022-09-14T08:38:28.300Z,14.35
2022-09-14T08:40:55.818Z,14.88
2022-09-14T08:43:25.492Z,12.87
2022-09-14T08:45:55.886Z,11.30
2022-09-14T08:48:45.409Z,13.20
2022-09-14T08:51:12.610Z,13.07
2022-09-14T08:53:41.710Z,12.33
2022-09-14T08:56:19.374Z,12.95
2022-09-14T08:59:07.264Z,12.90
2022-09-14T09:01:40.998Z,13.43
2022-09-14T09:04:17.500Z,14.43
2022-09-14T09:07:03.220Z,11.88
2022-09-14T09:09:34.397Z,15.50
2022-09-14T09:12:01.773Z,12.15
2022-09-14T09:14:36.381Z,15.23
2022-09-14T09:17:25.094Z,11.00
2022-09-14T09:19:59.540Z,10.82
2022-09-14T09:22:29.698Z,12.55
2022-09-14T09:24:57.562Z,10.57
2022-09-14T09:27:26.394Z,13.25
2022-09-14T09:29:53.566Z,11.15
2022-09-14T09:32:24.904Z,10.60
2022-09-14T09:34:52.698Z,10.73
2022-09-14T09:37:21.248Z,12.13
2022-09-14T09:39:49.086Z,10.15
2022-09-14T09:42:26.486Z,11.38
2022-09-14T09:45:00.653Z,9.73
2022-09-14T09:47:28.801Z,7.93
2022-09-14T09:50:07.017Z,9.45
2022-09-14T09:52:34.779Z,6.28
2022-09-14T09:55:03.227Z,8.55
2022-09-14T09:57:35.188Z,9.23
2022-09-14T10:00:11.401Z,5.78
2022-09-14T10:02:38.776Z,6.82
2022-09-14T10:05:18.812Z,6.35
2022-09-14T10:08:13.023Z,7.60
2022-09-14T10:10:43.003Z,8.38
2022-09-14T10:13:28.834Z,7.75
2022-09-14T10:16:05.803Z,9.25
2022-09-14T10:18:32.964Z,7.30
2022-09-14T10:21:00.071Z,6.50
2022-09-14T10:23:28.482Z,6.90
2022-09-14T10:26:15.821Z,5.85
2022-09-14T10:28:47.088Z,6.32
2022-09-14T10:31:20.161Z,6.53
2022-09-14T10:33:48.518Z,6.00
2022-09-14T10:36:38.280Z,7.20
2022-09-14T10:39:05.348Z,7.57
2022-09-14T10:41:50.570Z,6.45
2022-09-14T10:44:36.380Z,6.07
2022-09-14T10:47:22.192Z,6.00
2022-09-14T10:50:19.590Z,6.47
2022-09-14T10:53:00.873Z,7.03
2022-09-14T10:56:03.804Z,7.18
2022-09-14T10:58:49.651Z,6.93
2022-09-14T11:01:22.893Z,6.43
2022-09-14T11:04:06.821Z,8.70
2022-09-14T11:06:57.165Z,7.15
2022-09-14T11:09:31.397Z,4.70
2022-09-14T11:12:12.055Z,6.22
2022-09-14T11:14:51.687Z,6.78
2022-09-14T11:17:36.894Z,8.68
2022-09-14T11:20:22.566Z,8.90
2022-09-14T11:22:58.722Z,8.85
2022-09-14T11:25:33.448Z,7.13
2022-09-14T11:28:04.488Z,9.38
2022-09-14T11:30:43.583Z,9.60
2022-09-14T11:33:30.875Z,8.68
2022-09-14T11:36:16.684Z,9.77
2022-09-14T11:38:47.177Z,11.43
2022-09-14T11:41:24.587Z,10.57
2022-09-14T11:44:11.948Z,8.15
2022-09-14T11:46:41.531Z,10.07
2022-09-14T11:49:18.793Z,10.35
2022-09-14T11:51:48.933Z,8.38
2022-09-14T11:54:18.070Z,7.80
2022-09-14T11:56:48.533Z,10.00
2022-09-14T11:59:35.708Z,8.45
2022-09-14T12:02:21.459Z,8.98
2022-09-14T12:05:07.235Z,10.13
2022-09-14T12:07:43.431Z,10.18
2022-09-14T12:10:16.706Z,9.50
2022-09-14T12:12:44.889Z,10.65
2022-09-14T12:15:14.825Z,10.13
2022-09-14T12:17:42.050Z,8.85
2022-09-14T12:20:28.510Z,10.25
2022-09-14T12:23:24.928Z,10.43
2022-09-14T12:25:54.929Z,8.48
2022-09-14T12:28:39.873Z,10.30
2022-09-14T12:31:07.089Z,12.32
2022-09-14T12:33:34.268Z,11.43
2022-09-14T12:36:02.689Z,8.63
2022-09-14T12:38:29.744Z,9.55
2022-09-14T12:41:02.388Z,9.63
2022-09-14T12:43:35.369Z,8.82
2022-09-14T12:46:02.620Z,10.57
2022-09-14T12:48:48.075Z,9.95
2022-09-14T12:51:28.986Z,9.07
2022-09-14T12:54:01.248Z,9.57
2022-09-14T12:56:32.258Z,11.15
2022-09-14T12:58:59.944Z,9.60
2022-09-14T13:01:35.435Z,13.95
2022-09-14T13:04:03.216Z,11.75
2022-09-14T13:06:36.049Z,12.85
2022-09-14T13:09:07.471Z,10.52
2022-09-14T13:11:39.017Z,9.90
2022-09-14T13:14:06.269Z,11.93
2022-09-14T13:16:48.686Z,10.43
2022-09-14T13:19:24.618Z,11.55
2022-09-14T13:21:53.392Z,11.10
2022-09-14T13:24:28.750Z,11.65
2022-09-14T13:26:57.917Z,13.65
2022-09-14T13:29:26.726Z,10.98
2022-09-14T13:31:54.283Z,12.25
2022-09-14T13:34:26.561Z,11.73
2022-09-14T13:36:54.055Z,12.02
2022-09-14T13:39:26.543Z,11.43
2022-09-14T13:41:54.514Z,13.65
2022-09-14T13:44:27.300Z,11.73
2022-09-14T13:46:55.718Z,12.32
2022-09-14T13:49:22.986Z,13.38
2022-09-14T13:51:50.340Z,10.40
2022-09-14T13:54:19.520Z,12.43
2022-09-14T13:56:47.352Z,12.20
2022-09-14T13:59:16.140Z,13.05
2022-09-14T14:01:55.542Z,16.73
2022-09-14T14:04:36.043Z,15.15
2022-09-14T14:07:16.627Z,15.18
2022-09-14T14:09:54.237Z,12.65
2022-09-14T14:12:27.083Z,13.18
2022-09-14T14:14:55.403Z,18.98
2022-09-14T14:17:22.516Z,15.80
2022-09-14T14:19:50.104Z,17.48
2022-09-14T14:22:20.883Z,18.50
2022-09-14T14:25:12.479Z,18.65
2022-09-14T14:27:37.730Z,20.63
2022-09-14T14:30:13.339Z,19.95
2022-09-14T14:32:40.615Z,28.30
2022-09-14T14:35:18.629Z,27.88
2022-09-14T14:37:45.748Z,70.03
2022-09-14T14:40:13.848Z,24.05
2022-09-14T14:42:41.539Z,33.47
2022-09-14T14:45:14.208Z,33.33
2022-09-14T14:47:41.420Z,38.57
2022-09-14T14:50:15.725Z,23.23
2022-09-14T14:52:42.838Z,29.23
2022-09-14T14:55:10.610Z,33.27
2022-09-14T14:57:40.891Z,32.83
2022-09-14T15:00:13.270Z,35.10
2022-09-14T15:02:40.388Z,37.10
2022-09-14T15:05:07.934Z,45.40
2022-09-14T15:07:37.724Z,49.85
2022-09-14T15:10:06.430Z,45.28
2022-09-14T15:12:34.066Z,40.40
2022-09-14T15:15:01.517Z,32.03
2022-09-14T15:17:28.616Z,23.70
2022-09-14T15:19:55.694Z,19.23
2022-09-14T15:22:22.769Z,16.37
2022-09-14T15:24:50.007Z,17.27
2022-09-14T15:27:17.215Z,13.07
2022-09-14T15:29:44.297Z,10.90
2022-09-14T15:32:11.508Z,10.20
2022-09-14T15:34:38.769Z,10.20
2022-09-14T15:37:05.931Z,11.43
2022-09-14T15:39:33.110Z,6.70
2022-09-14T15:42:00.273Z,7.87
2022-09-14T15:44:27.424Z,9.40
2022-09-14T15:46:56.084Z,8.53
2022-09-14T15:49:24.124Z,8.17
2022-09-14T15:51:52.249Z,9.23
2022-09-14T15:54:26.207Z,7.70
2022-09-14T15:56:54.825Z,11.07
2022-09-14T15:59:22.348Z,9.00
2022-09-14T16:01:49.514Z,9.63
2022-09-14T16:04:17.562Z,9.07
2022-09-14T16:06:44.681Z,11.27
2022-09-14T16:09:12.419Z,8.47
2022-09-14T16:11:40.136Z,10.83
2022-09-14T16:14:07.997Z,7.77
2022-09-14T16:16:35.601Z,10.17
2022-09-14T16:19:09.709Z,10.10
2022-09-14T16:21:37.186Z,8.97
2022-09-14T16:24:06.122Z,6.57
2022-09-14T16:26:34.594Z,12.47
2022-09-14T16:29:01.678Z,8.87
2022-09-14T16:31:33.375Z,10.27
2022-09-14T16:34:02.228Z,9.37
2022-09-14T16:36:30.907Z,10.47
2022-09-14T16:38:58.959Z,9.00
2022-09-14T16:41:27.475Z,7.93
2022-09-14T16:43:58.543Z,8.90
2022-09-14T16:46:26.281Z,11.70
2022-09-14T16:48:53.810Z,7.43
2022-09-14T16:51:22.321Z,8.40
2022-09-14T16:53:49.964Z,8.32
2022-09-14T16:56:17.320Z,9.70
2022-09-14T16:58:45.402Z,8.07
2022-09-14T17:01:12.582Z,8.13
2022-09-14T17:03:40.006Z,8.27
2022-09-14T17:06:08.793Z,8.33
2022-09-14T17:08:38.720Z,7.67
2022-09-14T17:11:09.314Z,9.63
2022-09-14T17:13:37.016Z,8.50
2022-09-14T17:16:05.398Z,7.37
2022-09-14T17:18:33.128Z,10.67
2022-09-14T17:21:01.919Z,8.37
2022-09-14T17:23:29.276Z,8.70
2022-09-14T17:25:56.502Z,8.13
2022-09-14T17:28:25.721Z,8.10
2022-09-14T17:30:56.125Z,10.93
2022-09-14T17:33:23.520Z,6.73
2022-09-14T17:35:51.448Z,8.90
2022-09-14T17:38:19.159Z,7.53
2022-09-14T17:40:46.310Z,9.23
2022-09-14T17:43:13.493Z,9.93
2022-09-14T17:45:41.134Z,8.93
2022-09-14T17:48:08.638Z,8.87
2022-09-14T17:50:39.622Z,10.27
2022-09-14T17:53:06.709Z,8.43
2022-09-14T17:55:33.918Z,8.23
2022-09-14T17:58:01.006Z,8.67
2022-09-14T18:00:28.150Z,9.93
2022-09-14T18:02:55.618Z,10.70
2022-09-14T18:05:22.853Z,11.40
2022-09-14T18:07:51.326Z,14.40
2022-09-14T18:10:19.197Z,11.10
2022-09-14T18:12:46.570Z,11.30
2022-09-14T18:15:15.390Z,9.47
2022-09-14T18:17:43.254Z,8.33
2022-09-14T18:20:10.912Z,7.30
2022-09-14T18:22:38.837Z,11.83
2022-09-14T18:25:06.657Z,9.40
2022-09-14T18:27:33.769Z,8.97
2022-09-14T18:30:01.936Z,7.83
2022-09-14T18:32:29.191Z,12.47
2022-09-14T18:34:56.299Z,8.87
2022-09-14T18:37:24.008Z,8.07
2022-09-14T18:39:51.470Z,9.97
2022-09-14T18:42:18.653Z,9.47
2022-09-14T18:44:45.736Z,11.93
2022-09-14T18:47:13.442Z,8.33
2022-09-14T18:49:40.545Z,8.80
2022-09-14T18:52:07.730Z,12.87
2022-09-14T18:54:34.833Z,9.47
2022-09-14T18:57:01.933Z,11.80
2022-09-14T18:59:29.055Z,12.27
2022-09-14T19:01:56.442Z,10.20
2022-09-14T19:04:23.618Z,9.33
2022-09-14T19:06:50.812Z,13.77
2022-09-14T19:09:17.982Z,13.20
2022-09-14T19:11:45.109Z,12.73
2022-09-14T19:14:13.348Z,14.00
2022-09-14T19:16:41.504Z,14.03
2022-09-14T19:19:09.260Z,12.67
2022-09-14T19:21:36.380Z,14.90
2022-09-14T19:24:06.110Z,14.57
2022-09-14T19:26:34.858Z,16.10
2022-09-14T19:29:03.553Z,15.40
2022-09-14T19:31:31.313Z,10.90
2022-09-14T19:33:59.162Z,14.20
2022-09-14T19:36:27.426Z,16.27
2022-09-14T19:38:55.239Z,18.47
2022-09-14T19:41:22.483Z,22.20
2022-09-14T19:43:49.936Z,14.43
2022-09-14T19:46:21.182Z,13.63
2022-09-14T19:48:48.377Z,12.40
2022-09-14T19:51:20.012Z,13.00
2022-09-14T19:53:48.464Z,12.33
2022-09-14T19:56:16.614Z,12.50
2022-09-14T19:58:46.963Z,14.00
2022-09-14T20:01:14.729Z,15.83
2022-09-14T20:03:41.996Z,14.70
2022-09-14T20:06:10.586Z,13.17
2022-09-14T20:08:37.882Z,16.93
2022-09-14T20:11:09.095Z,14.73
2022-09-14T20:13:36.859Z,14.43
2022-09-14T20:16:13.901Z,14.30
2022-09-14T20:18:41.747Z,13.47
2022-09-14T20:21:10.071Z,16.37
2022-09-14T20:23:45.238Z,12.20
2022-09-14T20:26:19.696Z,13.03
2022-09-14T20:28:46.885Z,14.67
2022-09-14T20:31:14.438Z,15.90
2022-09-14T20:33:41.631Z,13.30
2022-09-14T20:36:10.191Z,12.87
2022-09-14T20:38:37.780Z,16.60
2022-09-14T20:41:09.062Z,12.73
2022-09-14T20:43:39.054Z,10.93
2022-09-14T20:46:11.509Z,10.87
2022-09-14T20:48:39.220Z,10.37
2022-09-14T20:51:07.026Z,14.50
2022-09-14T20:53:35.641Z,9.43
2022-09-14T20:56:04.390Z,15.33
2022-09-14T20:58:31.646Z,13.50
2022-09-14T21:01:06.255Z,11.00
2022-09-14T21:03:33.702Z,10.53
2022-09-14T21:06:01.679Z,11.90
2022-09-14T21:08:33.234Z,12.80
2022-09-14T21:11:04.673Z,8.77
2022-09-14T21:13:31.924Z,12.73
2022-09-14T21:15:59.140Z,11.80
2022-09-14T21:18:26.370Z,13.13
2022-09-14T21:20:53.467Z,14.43
2022-09-14T21:23:20.575Z,7.97
2022-09-14T21:25:54.257Z,9.63
2022-09-14T21:28:21.376Z,11.20
2022-09-14T21:30:49.290Z,9.77
2022-09-14T21:33:16.585Z,7.90
2022-09-14T21:35:43.929Z,11.57
2022-09-14T21:38:11.140Z,8.63
2022-09-14T21:40:38.740Z,9.37
2022-09-14T21:43:05.849Z,9.43
2022-09-14T21:45:32.945Z,8.80
2022-09-14T21:48:00.010Z,10.80
2022-09-14T21:50:27.153Z,13.00
2022-09-14T21:52:54.211Z,8.97
2022-09-14T21:55:21.343Z,9.00
2022-09-14T21:57:50.414Z,9.80
2022-09-14T22:00:17.680Z,10.40
2022-09-14T22:02:44.883Z,10.20
2022-09-14T22:05:12.727Z,9.03
2022-09-14T22:07:42.229Z,8.10
2022-09-14T22:10:10.728Z,14.33
2022-09-14T22:12:37.872Z,10.37
2022-09-14T22:15:05.148Z,10.33
2022-09-14T22:17:33.192Z,12.90
2022-09-14T22:20:00.700Z,12.57
2022-09-14T22:22:28.069Z,13.97
2022-09-14T22:24:55.173Z,9.70
2022-09-14T22:27:22.261Z,11.73
2022-09-14T22:29:49.375Z,9.83
2022-09-14T22:32:16.511Z,15.27
2022-09-14T22:34:48.849Z,12.33
2022-09-14T22:37:16.774Z,10.17
2022-09-14T22:39:43.982Z,13.00
2022-09-14T22:42:11.110Z,16.53
2022-09-14T22:44:38.208Z,14.03
2022-09-14T22:47:05.321Z,10.27
2022-09-14T22:49:32.519Z,12.23
2022-09-14T22:51:59.619Z,10.20
2022-09-14T22:54:26.751Z,9.47
2022-09-14T22:56:53.856Z,11.00
2022-09-14T22:59:20.994Z,11.80
2022-09-14T23:01:48.150Z,10.63
2022-09-14T23:04:15.550Z,11.30
2022-09-14T23:06:45.932Z,10.57
2022-09-14T23:09:14.709Z,10.67
2022-09-14T23:11:44.471Z,9.30
2022-09-14T23:14:12.266Z,12.27
2022-09-14T23:16:39.491Z,11.73
2022-09-14T23:19:07.074Z,9.90
2022-09-14T23:21:34.582Z,11.57
2022-09-14T23:24:03.625Z,10.53
2022-09-14T23:26:30.835Z,11.70
2022-09-14T23:29:00.416Z,8.20
2022-09-14T23:31:29.003Z,8.37
2022-09-14T23:33:57.015Z,9.53
2022-09-14T23:36:24.475Z,8.57
2022-09-14T23:38:51.950Z,12.67
2022-09-14T23:41:20.168Z,7.93
2022-09-14T23:43:47.728Z,9.73
2022-09-14T23:46:15.725Z,8.83
2022-09-14T23:48:43.189Z,10.17
2022-09-14T23:51:10.782Z,8.43
2022-09-14T23:53:38.037Z,11.13
2022-09-14T23:56:05.527Z,8.30
2022-09-14T23:58:32.941Z,10.97
